< < Back
Terminal Aerodrome Forecast


Current Version              Previous Versions:   1  2  3  4  5  6  7  8  9  

Terminal Aerodrome Forecast

602
FTUS42 KILM 031606 AAB
TAFILM
TAF AMD
KILM 031606Z 0316/0412 20007KT P6SM VCSH BKN035 OVC080
      TEMPO 0316/0318 3SM SHRA BKN025
     FM031800 19011G18KT P6SM VCSH SCT040 BKN080
     FM040000 19008KT P6SM BKN025 BKN120
     FM040700 18009KT 6SM -SHRA SCT025 SCT060 BKN120=

Latest METAR

959
SAUS70 KWBC 031900 RRL
MTRILM
METAR KILM 031853Z 00000KT 1/2SM R35/2800VP6000FT +TSRA FG FEW014 BKN029
OVC080 23/22 A2998 RMK AO2 LTG DSNT E AND SW TSE50B53 SLP153
P0015 T02330222


USA.gov is the U.S. government's official web portal to all federal, state and local government web resources and services.